首页
METAR-TAF:

METAR-TAF

机场 :

君士坦丁, 阿尔及利亚

纬度: 36-17N, 经度: 006-37E, 海拔: 694米

当前天气观测

该预报发布于32分钟前的17:30 UTC
风速12节,风向
温度 24°C
湿度 50%
气压 1020 hPa
能见度10公里或以上
少量云层高于2300英尺

METAR: DABC 191730Z 36012KT 9999 FEW023 24/13 Q1020

时间: 19:02 (18:02 UTC)

预报

该预报发布于1小时和2分钟前的17:00 UTC
预报有效从19日的 18点(UTC)到 20日的 18点(UTC)
风速8节,风向
能见度10公里或以上
散云层高于2600英尺
成为
从 20日的 10点(UTC)到 20日的 12点(UTC)
风速14节,风向
几率 30% :
短暂存在
从 20日的 12点(UTC)到 20日的 18点(UTC)
少量云层高于2300英尺, 塔状积云.

TAF: DABC 191700Z 1918/2018 01008KT 9999 SCT026 BECMG 2010/2012 09014KT PROB30 TEMPO 2012/2018 FEW023TCU

超过4000个机场的气象观测和天气预报(METAR&TAF报告)。

可查询的气象台以黄色和红色小点在地图上表示。

将鼠标移到小点上方,可查看气象台名称。

然后点击查看天气观测和预报。

如需切换地图:点击带黑十字的绿色按钮放大地图;点击带横线的绿色按钮缩小地图;或者点击绿色箭头查看邻近地区的地图。


METAR-TAF: